createdAt,value
2022-10-31T00:01:31.227Z,102090.88
2022-10-31T00:03:58.707Z,102090.88
2022-10-31T00:06:26.223Z,102089.16
2022-10-31T00:08:57.446Z,102090.91
2022-10-31T00:11:25.454Z,102101.34
2022-10-31T00:13:53.194Z,102093.53
2022-10-31T00:16:25.102Z,102096.16
2022-10-31T00:19:01.034Z,102093.53
2022-10-31T00:21:29.927Z,102089.16
2022-10-31T00:23:58.484Z,102086.56
2022-10-31T00:26:26.139Z,102097.88
2022-10-31T00:28:53.592Z,102112.63
2022-10-31T00:31:21.052Z,102106.56
2022-10-31T00:33:48.504Z,102099.59
2022-10-31T00:36:18.221Z,102100.44
2022-10-31T00:38:46.702Z,102100.44
2022-10-31T00:41:16.353Z,102092.59
2022-10-31T00:43:45.067Z,102104.72
2022-10-31T00:46:13.572Z,102101.25
2022-10-31T00:48:41.445Z,102116.88
2022-10-31T00:51:09.567Z,102109.91
2022-10-31T00:53:37.120Z,102109.88
2022-10-31T00:56:04.908Z,102104.59
2022-10-31T00:58:32.525Z,102113.31
2022-10-31T01:01:00.196Z,102106.34
2022-10-31T01:03:31.222Z,102102.78
2022-10-31T01:06:16.912Z,102121.94
2022-10-31T01:08:44.500Z,102115.81
2022-10-31T01:11:18.440Z,102106.19
2022-10-31T01:13:46.902Z,102080.06
2022-10-31T01:16:18.008Z,102085.31
2022-10-31T01:18:45.943Z,102087.00
2022-10-31T01:21:25.105Z,102090.44
2022-10-31T01:23:55.015Z,102077.38
2022-10-31T01:26:34.428Z,102078.16
2022-10-31T01:29:06.328Z,102072.84
2022-10-31T01:31:39.491Z,102071.91
2022-10-31T01:34:07.829Z,102079.63
2022-10-31T01:36:39.928Z,102078.72
2022-10-31T01:39:10.548Z,102082.16
2022-10-31T01:41:41.318Z,102078.63
2022-10-31T01:44:17.862Z,102082.91
2022-10-31T01:47:05.964Z,102064.59
2022-10-31T01:49:39.565Z,102070.59
2022-10-31T01:52:32.406Z,102067.06
2022-10-31T01:55:07.057Z,102072.22
2022-10-31T01:57:37.339Z,102073.00
2022-10-31T02:00:09.956Z,102066.84
2022-10-31T02:02:38.109Z,102065.09
2022-10-31T02:05:09.842Z,102067.63
2022-10-31T02:08:00.585Z,102075.41
2022-10-31T02:10:29.420Z,102077.06
2022-10-31T02:13:00.457Z,102071.78
2022-10-31T02:15:28.430Z,102062.19
2022-10-31T02:17:56.144Z,102070.84
2022-10-31T02:20:26.932Z,102063.00
2022-10-31T02:23:25.378Z,102068.22
2022-10-31T02:26:10.762Z,102071.63
2022-10-31T02:29:02.057Z,102068.06
2022-10-31T02:31:50.681Z,102068.84
2022-10-31T02:34:18.061Z,102078.31
2022-10-31T02:36:58.726Z,102076.56
2022-10-31T02:39:34.029Z,102081.78
2022-10-31T02:42:50.873Z,102076.47
2022-10-31T02:45:37.059Z,102067.56
2022-10-31T02:48:14.108Z,102075.34
2022-10-31T02:50:46.272Z,102071.84
2022-10-31T02:53:16.932Z,102071.97
2022-10-31T02:55:51.066Z,102072.81
2022-10-31T02:58:23.333Z,102076.38
2022-10-31T03:01:13.925Z,102078.13
2022-10-31T03:03:57.047Z,102066.75
2022-10-31T03:07:07.171Z,102078.94
2022-10-31T03:09:59.171Z,102078.06
2022-10-31T03:12:30.465Z,102078.06
2022-10-31T03:15:34.301Z,102078.97
2022-10-31T03:18:17.661Z,102078.06
2022-10-31T03:20:55.493Z,102083.28
2022-10-31T03:23:24.922Z,102082.38
2022-10-31T03:25:55.864Z,102079.78
2022-10-31T03:28:30.576Z,102081.53
2022-10-31T03:31:02.269Z,102077.16
2022-10-31T03:33:42.577Z,102082.34
2022-10-31T03:36:13.441Z,102079.78
2022-10-31T03:38:43.375Z,102084.09
2022-10-31T03:41:15.945Z,102081.53
2022-10-31T03:43:53.716Z,102083.28
2022-10-31T03:46:21.617Z,102076.28
2022-10-31T03:48:49.554Z,102083.28
2022-10-31T03:51:20.975Z,102081.53
2022-10-31T03:54:22.768Z,102082.31
2022-10-31T03:57:05.637Z,102087.53
2022-10-31T03:59:46.853Z,102087.50
2022-10-31T04:02:18.962Z,102088.34
2022-10-31T04:04:48.358Z,102079.59
2022-10-31T04:07:17.134Z,102095.19
2022-10-31T04:09:48.393Z,102091.72
2022-10-31T04:12:18.506Z,102097.75
2022-10-31T04:14:49.836Z,102092.53
2022-10-31T04:17:20.917Z,102078.53
2022-10-31T04:19:48.437Z,102087.16
2022-10-31T04:22:15.950Z,102082.75
2022-10-31T04:24:43.455Z,102084.50
2022-10-31T04:27:13.474Z,102075.91
2022-10-31T04:29:41.103Z,102081.97
2022-10-31T04:32:08.621Z,102088.06
2022-10-31T04:34:36.096Z,102082.84
2022-10-31T04:37:03.568Z,102082.78
2022-10-31T04:39:31.028Z,102079.25
2022-10-31T04:41:58.482Z,102074.88
2022-10-31T04:44:25.929Z,102074.00
2022-10-31T04:46:53.360Z,102073.13
2022-10-31T04:49:20.806Z,102074.88
2022-10-31T04:51:48.263Z,102077.47
2022-10-31T04:54:15.741Z,102077.44
2022-10-31T04:56:43.221Z,102074.81
2022-10-31T04:59:10.678Z,102077.38
2022-10-31T05:01:38.285Z,102080.78
2022-10-31T05:04:05.828Z,102072.13
2022-10-31T05:06:33.264Z,102087.78
2022-10-31T05:09:00.726Z,102072.22
2022-10-31T05:11:28.152Z,102068.66
2022-10-31T05:13:55.608Z,102083.47
2022-10-31T05:16:23.040Z,102072.09
2022-10-31T05:18:50.495Z,102072.03
2022-10-31T05:21:17.953Z,102069.38
2022-10-31T05:23:47.592Z,102063.22
2022-10-31T05:26:16.135Z,102056.22
2022-10-31T05:28:43.573Z,102059.72
2022-10-31T05:31:11.051Z,102064.97
2022-10-31T05:33:38.529Z,102062.28
2022-10-31T05:36:06.393Z,102062.22
2022-10-31T05:38:33.851Z,102063.09
2022-10-31T05:41:02.068Z,102057.91
2022-10-31T05:43:30.140Z,102054.41
2022-10-31T05:45:58.235Z,102056.16
2022-10-31T05:48:25.720Z,102054.44
2022-10-31T05:50:53.187Z,102049.22
2022-10-31T05:53:20.705Z,102056.16
2022-10-31T05:55:48.545Z,102043.91
2022-10-31T05:58:16.117Z,102055.25
2022-10-31T06:00:43.541Z,102049.22
2022-10-31T06:03:11.796Z,102041.41
2022-10-31T06:05:39.346Z,102044.91
2022-10-31T06:08:07.133Z,102044.13
2022-10-31T06:10:34.617Z,102047.69
2022-10-31T06:13:02.142Z,102040.88
2022-10-31T06:15:29.618Z,102054.75
2022-10-31T06:18:05.337Z,102044.47
2022-10-31T06:20:33.967Z,102047.97
2022-10-31T06:23:02.266Z,102054.13
2022-10-31T06:25:30.490Z,102049.81
2022-10-31T06:27:58.316Z,102051.63
2022-10-31T06:30:25.795Z,102053.34
2022-10-31T06:32:53.404Z,102061.19
2022-10-31T06:35:20.947Z,102047.25
2022-10-31T06:37:56.017Z,102065.59
2022-10-31T06:40:23.817Z,102062.97
2022-10-31T06:43:02.076Z,102048.13
2022-10-31T06:45:30.440Z,102062.16
2022-10-31T06:50:46.222Z,102054.38
2022-10-31T06:53:15.146Z,102059.56
2022-10-31T06:55:43.275Z,102063.97
2022-10-31T06:58:12.047Z,102068.34
2022-10-31T07:00:39.612Z,102071.81
2022-10-31T07:03:14.586Z,102062.34
2022-10-31T07:05:42.183Z,102066.66
2022-10-31T07:08:13.274Z,102068.38
2022-10-31T07:10:42.865Z,102065.78
2022-10-31T07:13:15.148Z,102060.63
2022-10-31T07:15:43.241Z,102064.13
2022-10-31T07:18:12.715Z,102060.56
2022-10-31T07:20:40.472Z,102063.19
2022-10-31T07:23:07.934Z,102067.56
2022-10-31T07:25:35.400Z,102066.81
2022-10-31T07:28:03.228Z,102077.28
2022-10-31T07:30:31.391Z,102080.66
2022-10-31T07:32:59.291Z,102074.69
2022-10-31T07:35:29.327Z,102076.47
2022-10-31T07:37:57.290Z,102062.47
2022-10-31T07:40:26.449Z,102067.78
2022-10-31T07:42:55.114Z,102073.94
2022-10-31T07:45:22.930Z,102074.84
2022-10-31T07:47:52.488Z,102069.78
2022-10-31T07:50:34.720Z,102073.34
2022-10-31T07:53:10.446Z,102083.88
2022-10-31T07:55:38.969Z,102077.81
2022-10-31T07:58:08.875Z,102089.09
2022-10-31T08:00:37.773Z,102094.41
2022-10-31T08:03:10.899Z,102085.00
2022-10-31T08:05:39.390Z,102085.03
2022-10-31T08:08:07.353Z,102086.84
2022-10-31T08:10:36.143Z,102084.41
2022-10-31T08:13:13.631Z,102086.22
2022-10-31T08:15:43.109Z,102084.56
2022-10-31T08:18:15.852Z,102096.72
2022-10-31T08:20:44.705Z,102094.22
2022-10-31T08:23:13.915Z,102085.63
2022-10-31T08:25:42.817Z,102074.41
2022-10-31T08:28:12.772Z,102081.41
2022-10-31T08:30:41.339Z,102077.97
2022-10-31T08:33:13.194Z,102085.88
2022-10-31T08:35:41.286Z,102082.34
2022-10-31T08:38:11.365Z,102084.13
2022-10-31T08:40:39.103Z,102089.34
2022-10-31T08:43:14.960Z,102077.19
2022-10-31T08:45:43.501Z,102085.91
2022-10-31T08:48:16.633Z,102076.38
2022-10-31T08:50:45.817Z,102076.41
2022-10-31T08:53:16.147Z,102067.69
2022-10-31T08:55:45.192Z,102053.75
2022-10-31T08:58:18.234Z,102056.41
2022-10-31T09:00:47.484Z,102051.28
2022-10-31T09:03:18.565Z,102047.94
2022-10-31T09:05:46.812Z,102054.06
2022-10-31T09:08:16.882Z,102057.59
2022-10-31T09:10:45.600Z,102049.84
2022-10-31T09:13:15.225Z,102046.53
2022-10-31T09:15:45.524Z,102041.50
2022-10-31T09:18:14.834Z,102042.47
2022-10-31T09:20:43.684Z,102029.56
2022-10-31T09:23:14.146Z,102025.25
2022-10-31T09:25:47.591Z,102014.88
2022-10-31T09:28:20.933Z,102020.16
2022-10-31T09:30:50.319Z,102009.69
2022-10-31T09:33:18.231Z,102012.31
2022-10-31T09:35:45.944Z,102009.72
2022-10-31T09:38:16.016Z,102026.31
2022-10-31T09:40:45.330Z,102023.72
2022-10-31T09:43:30.619Z,102015.00
2022-10-31T09:46:07.445Z,102018.47
2022-10-31T09:48:48.155Z,102016.75
2022-10-31T09:51:22.241Z,102008.94
2022-10-31T09:53:55.982Z,102008.91
2022-10-31T09:56:25.294Z,101994.13
2022-10-31T09:58:56.945Z,101987.16
2022-10-31T10:01:30.428Z,101986.28
2022-10-31T10:04:04.913Z,101990.63
2022-10-31T10:06:40.317Z,101980.19
2022-10-31T10:09:11.304Z,101979.31
2022-10-31T10:11:39.251Z,101977.59
2022-10-31T10:14:37.253Z,101968.00
2022-10-31T10:17:29.645Z,101973.19
2022-10-31T10:20:24.223Z,101960.97
2022-10-31T10:23:03.909Z,101962.66
2022-10-31T10:25:42.757Z,101957.41
2022-10-31T10:28:28.031Z,101949.56
2022-10-31T10:31:02.434Z,101945.22
2022-10-31T10:33:38.816Z,101941.66
2022-10-31T10:36:16.760Z,101949.44
2022-10-31T10:38:56.207Z,101944.13
2022-10-31T10:41:29.326Z,101932.84
2022-10-31T10:43:59.602Z,101924.00
2022-10-31T10:46:52.857Z,101910.91
2022-10-31T10:49:30.313Z,101899.63
2022-10-31T10:52:35.279Z,101894.31
2022-10-31T10:55:14.960Z,101881.09
2022-10-31T10:57:57.800Z,101877.56
2022-10-31T11:00:33.948Z,101869.72
2022-10-31T11:03:01.981Z,101859.22
2022-10-31T11:05:45.926Z,101847.09
2022-10-31T11:08:27.452Z,101844.38
2022-10-31T11:11:06.160Z,101845.31
2022-10-31T11:13:35.420Z,101843.63
2022-10-31T11:16:06.623Z,101851.19
2022-10-31T11:18:41.974Z,101852.03
2022-10-31T11:21:23.487Z,101850.00
2022-10-31T11:23:50.909Z,101852.53
2022-10-31T11:26:22.121Z,101849.75
2022-10-31T11:28:59.872Z,101853.22
2022-10-31T11:31:29.417Z,101850.44
2022-10-31T11:34:05.828Z,101831.97
2022-10-31T11:36:37.380Z,101819.66
2022-10-31T11:39:07.658Z,101817.19
2022-10-31T11:41:39.423Z,101812.72
2022-10-31T11:44:12.473Z,101804.84
2022-10-31T11:46:43.519Z,101795.59
2022-10-31T11:49:34.741Z,101785.09
2022-10-31T11:52:33.104Z,101775.44
2022-10-31T11:55:04.039Z,101752.00
2022-10-31T11:57:45.392Z,101749.66
2022-10-31T12:03:25.421Z,101759.03
2022-10-31T12:06:02.394Z,101748.53
2022-10-31T12:08:33.503Z,101753.81
2022-10-31T12:11:25.519Z,101755.50
2022-10-31T12:14:03.652Z,101752.13
2022-10-31T12:16:55.468Z,101734.44
2022-10-31T12:19:31.533Z,101735.34
2022-10-31T12:22:10.788Z,101723.94
2022-10-31T12:24:58.469Z,101724.03
2022-10-31T12:28:02.187Z,101706.56
2022-10-31T12:30:40.819Z,101708.09
2022-10-31T12:33:38.356Z,101707.19
2022-10-31T12:36:34.024Z,101690.25
2022-10-31T12:39:11.984Z,101671.22
2022-10-31T12:41:47.923Z,101682.56
2022-10-31T12:44:31.132Z,101681.63
2022-10-31T12:47:33.903Z,101680.53
2022-10-31T12:50:20.154Z,101665.63
2022-10-31T12:52:53.292Z,101654.25
2022-10-31T12:55:48.230Z,101641.03
2022-10-31T12:58:33.637Z,101633.69
2022-10-31T13:01:17.007Z,101650.97
2022-10-31T13:03:58.285Z,101627.00
2022-10-31T13:06:42.005Z,101609.75
2022-10-31T13:09:17.607Z,101615.66
2022-10-31T13:11:50.777Z,101609.25
2022-10-31T13:14:29.528Z,101604.91
2022-10-31T13:16:58.140Z,101598.06
2022-10-31T13:19:25.608Z,101587.47
2022-10-31T13:22:02.469Z,101589.91
2022-10-31T13:24:41.471Z,101579.41
2022-10-31T13:27:24.359Z,101579.50
2022-10-31T13:29:57.926Z,101570.03
2022-10-31T13:32:27.258Z,101567.41
2022-10-31T13:34:59.749Z,101566.50
2022-10-31T13:37:38.861Z,101554.38
2022-10-31T13:40:24.398Z,101555.25
2022-10-31T13:43:01.695Z,101537.69
2022-10-31T13:45:30.290Z,101533.38
2022-10-31T13:48:01.282Z,101537.59
2022-10-31T13:50:34.746Z,101527.13
2022-10-31T13:53:19.285Z,101522.00
2022-10-31T13:55:49.914Z,101520.28
2022-10-31T13:58:30.390Z,101524.63
2022-10-31T14:01:23.043Z,101513.25
2022-10-31T14:04:19.223Z,101509.75
2022-10-31T14:06:55.440Z,101506.25
2022-10-31T14:09:33.837Z,101496.78
2022-10-31T14:12:26.892Z,101501.03
2022-10-31T14:14:59.179Z,101497.81
2022-10-31T14:17:33.769Z,101496.31
2022-10-31T14:20:05.044Z,101489.16
2022-10-31T14:22:37.470Z,101475.09
2022-10-31T14:25:33.569Z,101469.00
2022-10-31T14:28:04.965Z,101472.47
2022-10-31T14:30:33.412Z,101469.91
2022-10-31T14:33:04.531Z,101466.56
2022-10-31T14:35:58.122Z,101469.06
2022-10-31T14:38:43.893Z,101452.44
2022-10-31T14:41:30.773Z,101448.84
2022-10-31T14:44:25.681Z,101435.91
2022-10-31T14:47:00.742Z,101444.66
2022-10-31T14:49:47.520Z,101438.50
2022-10-31T14:52:19.169Z,101436.75
2022-10-31T14:54:53.964Z,101435.88
2022-10-31T14:57:27.033Z,101437.53
2022-10-31T15:00:02.595Z,101426.25
2022-10-31T15:02:39.791Z,101426.47
2022-10-31T15:05:12.221Z,101422.03
2022-10-31T15:08:00.133Z,101415.13
2022-10-31T15:10:33.040Z,101409.88
2022-10-31T15:13:20.407Z,101404.59
2022-10-31T15:15:52.301Z,101402.16
2022-10-31T15:18:22.553Z,101399.53
2022-10-31T15:20:51.864Z,101391.53
2022-10-31T15:23:28.941Z,101389.91
2022-10-31T15:26:03.626Z,101382.03
2022-10-31T15:28:32.872Z,101377.75
2022-10-31T15:31:05.023Z,101372.50
2022-10-31T15:33:39.217Z,101369.88
2022-10-31T15:36:08.989Z,101356.88
2022-10-31T15:38:38.389Z,101357.69
2022-10-31T15:41:24.361Z,101339.41
2022-10-31T15:43:52.644Z,101335.88
2022-10-31T15:46:20.386Z,101332.41
2022-10-31T15:48:49.808Z,101313.09
2022-10-31T15:51:17.552Z,101328.88
2022-10-31T15:53:54.220Z,101320.00
2022-10-31T15:56:26.361Z,101321.97
2022-10-31T15:58:54.714Z,101325.44
2022-10-31T16:01:23.653Z,101319.31
2022-10-31T16:04:21.708Z,101323.78
2022-10-31T16:07:00.932Z,101299.47
2022-10-31T16:09:28.740Z,101304.63
2022-10-31T16:12:00.416Z,101304.81
2022-10-31T16:14:32.657Z,101307.47
2022-10-31T16:17:00.763Z,101309.25
2022-10-31T16:19:32.486Z,101304.16
2022-10-31T16:22:12.859Z,101311.16
2022-10-31T16:24:48.263Z,101302.56
2022-10-31T16:27:26.676Z,101303.38
2022-10-31T16:29:54.781Z,101289.56
2022-10-31T16:32:34.334Z,101293.13
2022-10-31T16:35:02.738Z,101300.22
2022-10-31T16:37:30.204Z,101298.47
2022-10-31T16:39:57.680Z,101295.91
2022-10-31T16:42:25.603Z,101290.69
2022-10-31T16:44:53.216Z,101284.53
2022-10-31T16:47:23.409Z,101285.44
2022-10-31T16:49:54.422Z,101277.59
2022-10-31T16:52:22.041Z,101275.84
2022-10-31T16:54:49.833Z,101272.25
2022-10-31T16:57:22.370Z,101262.69
2022-10-31T16:59:52.233Z,101256.53
2022-10-31T17:02:20.156Z,101254.03
2022-10-31T17:04:49.670Z,101261.91
2022-10-31T17:07:19.738Z,101265.44
2022-10-31T17:09:47.242Z,101264.56
2022-10-31T17:12:22.085Z,101255.06
2022-10-31T17:14:53.043Z,101260.44
2022-10-31T17:17:20.502Z,101243.00
2022-10-31T17:19:47.983Z,101253.56
2022-10-31T17:22:16.578Z,101243.97
2022-10-31T17:24:44.156Z,101244.00
2022-10-31T17:27:11.641Z,101243.19
2022-10-31T17:29:39.176Z,101238.09
2022-10-31T17:32:06.960Z,101237.16
2022-10-31T17:34:34.634Z,101226.72
2022-10-31T17:37:02.141Z,101227.63
2022-10-31T17:39:29.642Z,101225.97
2022-10-31T17:41:57.148Z,101228.59
2022-10-31T17:44:24.586Z,101230.41
2022-10-31T17:46:52.076Z,101213.03
2022-10-31T17:49:19.633Z,101194.84
2022-10-31T17:51:47.146Z,101193.94
2022-10-31T17:54:18.383Z,101176.47
2022-10-31T17:56:45.841Z,101186.97
2022-10-31T17:59:13.342Z,101158.41
2022-10-31T18:01:40.934Z,101168.75
2022-10-31T18:04:08.448Z,101155.69
2022-10-31T18:06:35.937Z,101161.78
2022-10-31T18:09:05.694Z,101166.19
2022-10-31T18:11:33.984Z,101174.94
2022-10-31T18:14:01.656Z,101169.78
2022-10-31T18:16:29.205Z,101177.72
2022-10-31T18:19:01.664Z,101170.88
2022-10-31T18:21:30.378Z,101161.28
2022-10-31T18:23:59.366Z,101165.69
2022-10-31T18:26:29.265Z,101165.69
2022-10-31T18:28:56.804Z,101152.66
2022-10-31T18:31:25.705Z,101162.22
2022-10-31T18:33:54.913Z,101157.88
2022-10-31T18:36:22.540Z,101153.56
2022-10-31T18:38:50.024Z,101154.50
2022-10-31T18:41:17.912Z,101144.84
2022-10-31T18:43:45.394Z,101139.59
2022-10-31T18:46:17.792Z,101137.00
2022-10-31T18:48:46.889Z,101128.28
2022-10-31T18:51:17.987Z,101122.16
2022-10-31T18:53:55.544Z,101119.63
2022-10-31T18:56:24.002Z,101131.75
2022-10-31T18:58:52.121Z,101128.31
2022-10-31T19:01:23.774Z,101130.06
2022-10-31T19:03:56.291Z,101127.47
2022-10-31T19:06:25.278Z,101129.25
2022-10-31T19:08:59.144Z,101127.53
2022-10-31T19:11:26.967Z,101132.78
2022-10-31T19:13:54.494Z,101129.34
2022-10-31T19:16:21.993Z,101125.94
2022-10-31T19:18:49.517Z,101103.50
2022-10-31T19:21:18.801Z,101112.06
2022-10-31T19:23:46.804Z,101106.91
2022-10-31T19:26:15.052Z,101106.94
2022-10-31T19:28:43.104Z,101106.09
2022-10-31T19:31:11.273Z,101098.28
2022-10-31T19:33:39.108Z,101100.03
2022-10-31T19:36:14.467Z,101085.25
2022-10-31T19:38:47.225Z,101096.59
2022-10-31T19:41:22.361Z,101093.19
2022-10-31T19:43:50.302Z,101097.53
2022-10-31T19:46:22.658Z,101096.72
2022-10-31T19:48:55.807Z,101089.78
2022-10-31T19:51:23.305Z,101089.78
2022-10-31T19:53:52.408Z,101086.34
2022-10-31T19:56:25.149Z,101086.44
2022-10-31T19:58:53.180Z,101072.59
2022-10-31T20:01:23.571Z,101088.22
2022-10-31T20:03:52.427Z,101083.03
2022-10-31T20:06:27.552Z,101081.31
2022-10-31T20:08:56.624Z,101080.47
2022-10-31T20:11:26.058Z,101081.34
2022-10-31T20:13:56.532Z,101062.25
2022-10-31T20:16:24.967Z,101069.16
2022-10-31T20:18:54.030Z,101062.22
2022-10-31T20:21:24.740Z,101060.44
2022-10-31T20:24:06.175Z,101057.00
2022-10-31T20:26:35.071Z,101058.69
2022-10-31T20:29:03.812Z,101063.91
2022-10-31T20:31:34.349Z,101041.31
2022-10-31T20:34:01.854Z,101047.34
2022-10-31T20:36:30.853Z,101046.44
2022-10-31T20:38:59.240Z,101036.09
2022-10-31T20:41:27.324Z,101032.59
2022-10-31T20:43:54.884Z,101023.91
2022-10-31T20:46:24.958Z,101030.88
2022-10-31T20:48:53.654Z,101023.97
2022-10-31T20:51:23.700Z,101018.78
2022-10-31T20:53:56.397Z,101023.97
2022-10-31T20:56:25.976Z,101022.22
2022-10-31T20:58:56.208Z,101010.06
2022-10-31T21:01:27.005Z,101010.00
2022-10-31T21:03:54.835Z,101007.31
2022-10-31T21:06:24.088Z,101004.69
2022-10-31T21:08:53.750Z,101005.53
2022-10-31T21:11:24.467Z,100993.38
2022-10-31T21:13:52.656Z,100998.59
2022-10-31T21:16:25.569Z,100993.38
2022-10-31T21:18:53.777Z,100989.06
2022-10-31T21:21:33.547Z,100984.69
2022-10-31T21:24:07.570Z,100983.84
2022-10-31T21:26:37.951Z,100980.38
2022-10-31T21:29:06.855Z,100966.53
2022-10-31T21:31:36.132Z,100961.31
2022-10-31T21:34:03.777Z,100972.59
2022-10-31T21:36:31.276Z,100961.31
2022-10-31T21:38:58.776Z,100954.41
2022-10-31T21:41:26.766Z,100957.84
2022-10-31T21:43:55.340Z,100963.06
2022-10-31T21:46:34.893Z,100949.16
2022-10-31T21:49:04.656Z,100945.63
2022-10-31T21:51:34.795Z,100937.81
2022-10-31T21:54:20.582Z,100951.66
2022-10-31T21:56:48.572Z,100945.53
2022-10-31T21:59:16.192Z,100942.88
2022-10-31T22:01:43.804Z,100949.78
2022-10-31T22:04:11.581Z,100939.31
2022-10-31T22:06:39.480Z,100924.53
2022-10-31T22:09:09.102Z,100938.34
2022-10-31T22:11:36.978Z,100929.63
2022-10-31T22:14:05.004Z,100925.28
2022-10-31T22:16:35.740Z,100929.66
2022-10-31T22:19:05.637Z,100924.44
2022-10-31T22:21:39.522Z,100915.81
2022-10-31T22:24:08.000Z,100913.19
2022-10-31T22:26:35.929Z,100918.25
2022-10-31T22:29:06.384Z,100905.28
2022-10-31T22:31:35.154Z,100923.41
2022-10-31T22:34:02.696Z,100919.03
2022-10-31T22:36:31.701Z,100918.91
2022-10-31T22:39:00.313Z,100910.09
2022-10-31T22:41:30.581Z,100905.72
2022-10-31T22:43:59.339Z,100895.19
2022-10-31T22:46:30.036Z,100882.09
2022-10-31T22:49:03.178Z,100889.06
2022-10-31T22:51:33.834Z,100879.47
2022-10-31T22:54:01.652Z,100876.78
2022-10-31T22:56:32.223Z,100881.06
2022-10-31T22:59:01.011Z,100885.34
2022-10-31T23:01:31.964Z,100886.16
2022-10-31T23:04:00.175Z,100873.06
2022-10-31T23:06:30.096Z,100870.50
2022-10-31T23:08:57.886Z,100867.09
2022-10-31T23:11:28.421Z,100860.22
2022-10-31T23:14:09.158Z,100853.31
2022-10-31T23:16:51.017Z,100859.47
2022-10-31T23:19:29.890Z,100849.03
2022-10-31T23:22:00.947Z,100850.84
2022-10-31T23:24:40.132Z,100825.00
2022-10-31T23:27:15.088Z,100842.19
2022-10-31T23:29:48.794Z,100854.44
2022-10-31T23:32:22.381Z,100846.63
2022-10-31T23:34:52.040Z,100844.03
2022-10-31T23:37:23.078Z,100845.00
2022-10-31T23:39:51.044Z,100847.59
2022-10-31T23:42:19.722Z,100833.69
2022-10-31T23:44:47.580Z,100836.38
2022-10-31T23:47:15.853Z,100833.81
2022-10-31T23:49:43.585Z,100821.66
2022-10-31T23:52:12.102Z,100806.22
2022-10-31T23:54:40.123Z,100819.91
2022-10-31T23:57:07.682Z,100823.41
2022-10-31T23:59:35.282Z,100821.69
